sensor_id;sensor_type;location;lat;lon;timestamp;P1;durP1;ratioP1;P2;durP2;ratioP2
26540;SDS011;14206;50.202;10.948;2023-04-03T00:00:53;1.70;;;1.58;;
26540;SDS011;14206;50.202;10.948;2023-04-03T00:03:21;2.88;;;1.67;;
26540;SDS011;14206;50.202;10.948;2023-04-03T00:05:48;2.97;;;1.70;;
26540;SDS011;14206;50.202;10.948;2023-04-03T00:08:15;2.13;;;1.52;;
26540;SDS011;14206;50.202;10.948;2023-04-03T00:10:42;2.30;;;1.65;;
26540;SDS011;14206;50.202;10.948;2023-04-03T00:13:09;1.98;;;1.70;;
26540;SDS011;14206;50.202;10.948;2023-04-03T00:15:36;1.58;;;1.40;;
26540;SDS011;14206;50.202;10.948;2023-04-03T00:18:03;2.10;;;1.50;;
26540;SDS011;14206;50.202;10.948;2023-04-03T00:20:30;1.92;;;1.60;;
26540;SDS011;14206;50.202;10.948;2023-04-03T00:22:57;3.17;;;1.77;;
26540;SDS011;14206;50.202;10.948;2023-04-03T00:25:24;2.10;;;1.50;;
26540;SDS011;14206;50.202;10.948;2023-04-03T00:27:51;2.30;;;1.67;;
26540;SDS011;14206;50.202;10.948;2023-04-03T00:30:19;4.10;;;1.80;;
26540;SDS011;14206;50.202;10.948;2023-04-03T00:32:48;2.55;;;2.00;;
26540;SDS011;14206;50.202;10.948;2023-04-03T00:35:16;2.55;;;1.70;;
26540;SDS011;14206;50.202;10.948;2023-04-03T00:37:44;4.03;;;2.10;;
26540;SDS011;14206;50.202;10.948;2023-04-03T00:40:12;3.42;;;2.00;;
26540;SDS011;14206;50.202;10.948;2023-04-03T00:42:41;2.72;;;2.22;;
26540;SDS011;14206;50.202;10.948;2023-04-03T00:47:44;2.80;;;2.17;;
26540;SDS011;14206;50.202;10.948;2023-04-03T00:50:12;2.35;;;2.10;;
26540;SDS011;14206;50.202;10.948;2023-04-03T00:52:39;4.00;;;2.30;;
26540;SDS011;14206;50.202;10.948;2023-04-03T00:55:07;3.25;;;2.30;;
26540;SDS011;14206;50.202;10.948;2023-04-03T00:57:35;5.40;;;2.20;;
26540;SDS011;14206;50.202;10.948;2023-04-03T01:00:08;3.55;;;2.17;;
26540;SDS011;14206;50.202;10.948;2023-04-03T01:02:37;2.72;;;2.40;;
26540;SDS011;14206;50.202;10.948;2023-04-03T01:05:08;4.35;;;2.50;;
26540;SDS011;14206;50.202;10.948;2023-04-03T01:07:36;3.83;;;2.40;;
26540;SDS011;14206;50.202;10.948;2023-04-03T01:10:05;2.53;;;2.33;;
26540;SDS011;14206;50.202;10.948;2023-04-03T01:12:38;4.50;;;2.97;;
26540;SDS011;14206;50.202;10.948;2023-04-03T01:15:30;3.17;;;2.88;;
26540;SDS011;14206;50.202;10.948;2023-04-03T01:18:01;3.97;;;2.80;;
26540;SDS011;14206;50.202;10.948;2023-04-03T01:25:37;3.78;;;2.50;;
26540;SDS011;14206;50.202;10.948;2023-04-03T01:28:08;3.10;;;2.50;;
26540;SDS011;14206;50.202;10.948;2023-04-03T01:30:49;4.00;;;2.50;;
26540;SDS011;14206;50.202;10.948;2023-04-03T01:33:17;3.88;;;2.65;;
26540;SDS011;14206;50.202;10.948;2023-04-03T01:35:46;3.20;;;2.50;;
26540;SDS011;14206;50.202;10.948;2023-04-03T01:38:12;3.42;;;2.45;;
26540;SDS011;14206;50.202;10.948;2023-04-03T01:40:39;4.40;;;2.50;;
26540;SDS011;14206;50.202;10.948;2023-04-03T01:43:06;3.28;;;2.30;;
26540;SDS011;14206;50.202;10.948;2023-04-03T01:45:33;4.03;;;2.85;;
26540;SDS011;14206;50.202;10.948;2023-04-03T01:48:00;3.88;;;2.42;;
26540;SDS011;14206;50.202;10.948;2023-04-03T01:50:27;4.00;;;2.72;;
26540;SDS011;14206;50.202;10.948;2023-04-03T01:52:54;3.55;;;2.35;;
26540;SDS011;14206;50.202;10.948;2023-04-03T01:55:21;3.83;;;2.40;;
26540;SDS011;14206;50.202;10.948;2023-04-03T01:57:48;4.03;;;2.60;;
26540;SDS011;14206;50.202;10.948;2023-04-03T02:00:15;4.07;;;2.28;;
26540;SDS011;14206;50.202;10.948;2023-04-03T02:02:43;4.32;;;2.80;;
26540;SDS011;14206;50.202;10.948;2023-04-03T02:05:10;2.45;;;1.98;;
26540;SDS011;14206;50.202;10.948;2023-04-03T02:07:37;2.65;;;1.92;;
26540;SDS011;14206;50.202;10.948;2023-04-03T02:10:04;2.67;;;2.40;;
26540;SDS011;14206;50.202;10.948;2023-04-03T02:12:31;2.97;;;2.30;;
26540;SDS011;14206;50.202;10.948;2023-04-03T02:14:58;3.50;;;2.00;;
26540;SDS011;14206;50.202;10.948;2023-04-03T02:17:25;4.43;;;2.15;;
26540;SDS011;14206;50.202;10.948;2023-04-03T02:19:53;3.28;;;2.00;;
26540;SDS011;14206;50.202;10.948;2023-04-03T02:22:20;2.67;;;2.00;;
26540;SDS011;14206;50.202;10.948;2023-04-03T02:24:47;2.40;;;2.08;;
26540;SDS011;14206;50.202;10.948;2023-04-03T02:27:14;3.53;;;2.05;;
26540;SDS011;14206;50.202;10.948;2023-04-03T02:29:41;2.75;;;1.90;;
26540;SDS011;14206;50.202;10.948;2023-04-03T02:32:08;2.33;;;2.10;;
26540;SDS011;14206;50.202;10.948;2023-04-03T02:34:35;2.75;;;1.80;;
26540;SDS011;14206;50.202;10.948;2023-04-03T02:37:03;5.03;;;2.65;;
26540;SDS011;14206;50.202;10.948;2023-04-03T02:39:30;3.03;;;2.20;;
26540;SDS011;14206;50.202;10.948;2023-04-03T02:41:58;2.80;;;2.08;;
26540;SDS011;14206;50.202;10.948;2023-04-03T02:44:26;3.97;;;2.30;;
26540;SDS011;14206;50.202;10.948;2023-04-03T02:46:52;3.65;;;2.08;;
26540;SDS011;14206;50.202;10.948;2023-04-03T02:49:19;3.05;;;2.00;;
26540;SDS011;14206;50.202;10.948;2023-04-03T02:51:46;3.13;;;2.10;;
26540;SDS011;14206;50.202;10.948;2023-04-03T02:54:13;2.40;;;1.85;;
26540;SDS011;14206;50.202;10.948;2023-04-03T02:56:45;3.90;;;2.00;;
26540;SDS011;14206;50.202;10.948;2023-04-03T02:59:12;2.72;;;1.70;;
26540;SDS011;14206;50.202;10.948;2023-04-03T03:01:39;2.28;;;1.80;;
26540;SDS011;14206;50.202;10.948;2023-04-03T03:04:06;3.35;;;1.83;;
26540;SDS011;14206;50.202;10.948;2023-04-03T03:06:34;3.40;;;1.98;;
26540;SDS011;14206;50.202;10.948;2023-04-03T03:09:02;2.80;;;1.90;;
26540;SDS011;14206;50.202;10.948;2023-04-03T03:11:29;1.75;;;1.65;;
26540;SDS011;14206;50.202;10.948;2023-04-03T03:13:57;2.90;;;1.95;;
26540;SDS011;14206;50.202;10.948;2023-04-03T03:16:24;2.38;;;1.90;;
26540;SDS011;14206;50.202;10.948;2023-04-03T03:18:51;3.50;;;2.00;;
26540;SDS011;14206;50.202;10.948;2023-04-03T03:21:18;3.58;;;1.80;;
26540;SDS011;14206;50.202;10.948;2023-04-03T03:23:45;2.50;;;2.30;;
26540;SDS011;14206;50.202;10.948;2023-04-03T03:26:12;2.30;;;1.70;;
26540;SDS011;14206;50.202;10.948;2023-04-03T03:28:39;1.90;;;1.70;;
26540;SDS011;14206;50.202;10.948;2023-04-03T03:31:07;1.60;;;1.50;;
26540;SDS011;14206;50.202;10.948;2023-04-03T03:33:37;2.38;;;1.63;;
26540;SDS011;14206;50.202;10.948;2023-04-03T03:36:03;2.58;;;1.85;;
26540;SDS011;14206;50.202;10.948;2023-04-03T03:38:31;2.20;;;1.90;;
26540;SDS011;14206;50.202;10.948;2023-04-03T03:40:59;3.45;;;2.00;;
26540;SDS011;14206;50.202;10.948;2023-04-03T03:43:27;2.92;;;2.05;;
26540;SDS011;14206;50.202;10.948;2023-04-03T03:45:54;4.03;;;1.85;;
26540;SDS011;14206;50.202;10.948;2023-04-03T03:48:22;2.13;;;1.90;;
26540;SDS011;14206;50.202;10.948;2023-04-03T03:50:49;3.38;;;2.28;;
26540;SDS011;14206;50.202;10.948;2023-04-03T03:53:19;3.08;;;2.00;;
26540;SDS011;14206;50.202;10.948;2023-04-03T03:55:48;2.60;;;1.77;;
26540;SDS011;14206;50.202;10.948;2023-04-03T03:58:18;3.17;;;1.98;;
26540;SDS011;14206;50.202;10.948;2023-04-03T04:00:44;4.13;;;2.20;;
26540;SDS011;14206;50.202;10.948;2023-04-03T04:03:11;3.72;;;2.10;;
26540;SDS011;14206;50.202;10.948;2023-04-03T04:05:39;4.13;;;2.13;;
26540;SDS011;14206;50.202;10.948;2023-04-03T04:08:06;2.97;;;2.17;;
26540;SDS011;14206;50.202;10.948;2023-04-03T04:10:34;3.03;;;1.67;;
26540;SDS011;14206;50.202;10.948;2023-04-03T04:13:01;4.03;;;1.98;;
26540;SDS011;14206;50.202;10.948;2023-04-03T04:15:28;4.15;;;2.20;;
26540;SDS011;14206;50.202;10.948;2023-04-03T04:17:56;2.53;;;1.92;;
26540;SDS011;14206;50.202;10.948;2023-04-03T04:20:23;4.05;;;2.47;;
26540;SDS011;14206;50.202;10.948;2023-04-03T04:22:52;3.65;;;2.33;;
26540;SDS011;14206;50.202;10.948;2023-04-03T04:25:20;3.08;;;2.38;;
26540;SDS011;14206;50.202;10.948;2023-04-03T04:27:47;5.88;;;2.45;;
26540;SDS011;14206;50.202;10.948;2023-04-03T04:30:14;3.58;;;2.20;;
26540;SDS011;14206;50.202;10.948;2023-04-03T04:32:43;4.25;;;2.38;;
26540;SDS011;14206;50.202;10.948;2023-04-03T04:35:11;4.03;;;2.53;;
26540;SDS011;14206;50.202;10.948;2023-04-03T04:37:43;4.22;;;2.78;;
26540;SDS011;14206;50.202;10.948;2023-04-03T04:40:11;3.25;;;2.72;;
26540;SDS011;14206;50.202;10.948;2023-04-03T04:42:38;5.45;;;2.70;;
26540;SDS011;14206;50.202;10.948;2023-04-03T04:45:05;3.97;;;2.63;;
26540;SDS011;14206;50.202;10.948;2023-04-03T04:47:34;3.58;;;2.90;;
26540;SDS011;14206;50.202;10.948;2023-04-03T04:50:02;3.58;;;2.55;;
26540;SDS011;14206;50.202;10.948;2023-04-03T04:52:31;5.00;;;2.58;;
26540;SDS011;14206;50.202;10.948;2023-04-03T04:54:58;4.57;;;2.38;;
26540;SDS011;14206;50.202;10.948;2023-04-03T04:57:26;3.33;;;2.00;;
26540;SDS011;14206;50.202;10.948;2023-04-03T04:59:53;2.92;;;2.05;;
26540;SDS011;14206;50.202;10.948;2023-04-03T05:02:20;3.25;;;2.22;;
26540;SDS011;14206;50.202;10.948;2023-04-03T05:04:47;3.20;;;2.70;;
26540;SDS011;14206;50.202;10.948;2023-04-03T05:07:20;7.07;;;2.97;;
26540;SDS011;14206;50.202;10.948;2023-04-03T05:09:47;4.13;;;2.47;;
26540;SDS011;14206;50.202;10.948;2023-04-03T05:12:15;2.90;;;2.58;;
26540;SDS011;14206;50.202;10.948;2023-04-03T05:14:49;4.00;;;2.50;;
26540;SDS011;14206;50.202;10.948;2023-04-03T05:17:16;4.07;;;2.80;;
26540;SDS011;14206;50.202;10.948;2023-04-03T05:19:48;3.58;;;2.40;;
26540;SDS011;14206;50.202;10.948;2023-04-03T05:22:16;3.78;;;2.50;;
26540;SDS011;14206;50.202;10.948;2023-04-03T05:24:43;3.28;;;2.30;;
26540;SDS011;14206;50.202;10.948;2023-04-03T05:27:11;3.97;;;2.47;;
26540;SDS011;14206;50.202;10.948;2023-04-03T05:29:42;2.67;;;2.00;;
26540;SDS011;14206;50.202;10.948;2023-04-03T05:32:13;3.83;;;2.35;;
26540;SDS011;14206;50.202;10.948;2023-04-03T05:34:40;2.97;;;2.67;;
26540;SDS011;14206;50.202;10.948;2023-04-03T05:37:07;4.40;;;2.78;;
26540;SDS011;14206;50.202;10.948;2023-04-03T05:39:34;4.93;;;2.85;;
26540;SDS011;14206;50.202;10.948;2023-04-03T05:42:03;3.13;;;2.80;;
26540;SDS011;14206;50.202;10.948;2023-04-03T05:44:30;5.05;;;3.05;;
26540;SDS011;14206;50.202;10.948;2023-04-03T05:46:57;3.55;;;2.78;;
26540;SDS011;14206;50.202;10.948;2023-04-03T05:49:23;4.35;;;2.92;;
26540;SDS011;14206;50.202;10.948;2023-04-03T05:51:50;4.68;;;3.05;;
26540;SDS011;14206;50.202;10.948;2023-04-03T05:54:27;4.03;;;2.85;;
26540;SDS011;14206;50.202;10.948;2023-04-03T05:57:02;4.15;;;3.33;;
26540;SDS011;14206;50.202;10.948;2023-04-03T05:59:29;4.88;;;3.58;;
26540;SDS011;14206;50.202;10.948;2023-04-03T06:01:58;7.00;;;3.15;;
26540;SDS011;14206;50.202;10.948;2023-04-03T06:04:24;4.45;;;3.00;;
26540;SDS011;14206;50.202;10.948;2023-04-03T06:06:54;8.10;;;3.40;;
26540;SDS011;14206;50.202;10.948;2023-04-03T06:09:25;4.43;;;3.22;;
26540;SDS011;14206;50.202;10.948;2023-04-03T06:11:55;4.20;;;3.50;;
26540;SDS011;14206;50.202;10.948;2023-04-03T06:14:25;3.67;;;3.28;;
26540;SDS011;14206;50.202;10.948;2023-04-03T06:16:53;3.60;;;3.17;;
26540;SDS011;14206;50.202;10.948;2023-04-03T06:19:21;4.15;;;3.28;;
26540;SDS011;14206;50.202;10.948;2023-04-03T06:21:52;4.55;;;3.50;;
26540;SDS011;14206;50.202;10.948;2023-04-03T06:24:19;5.05;;;3.45;;
26540;SDS011;14206;50.202;10.948;2023-04-03T06:26:47;4.53;;;3.00;;
26540;SDS011;14206;50.202;10.948;2023-04-03T06:29:15;4.32;;;2.95;;
26540;SDS011;14206;50.202;10.948;2023-04-03T06:31:41;4.78;;;2.90;;
26540;SDS011;14206;50.202;10.948;2023-04-03T06:34:08;3.85;;;2.80;;
26540;SDS011;14206;50.202;10.948;2023-04-03T06:36:38;3.55;;;2.80;;
26540;SDS011;14206;50.202;10.948;2023-04-03T06:39:06;5.05;;;2.80;;
26540;SDS011;14206;50.202;10.948;2023-04-03T06:41:34;3.28;;;2.95;;
26540;SDS011;14206;50.202;10.948;2023-04-03T06:44:02;4.03;;;2.97;;
26540;SDS011;14206;50.202;10.948;2023-04-03T06:46:29;4.90;;;3.67;;
26540;SDS011;14206;50.202;10.948;2023-04-03T06:48:56;5.75;;;3.33;;
26540;SDS011;14206;50.202;10.948;2023-04-03T06:51:24;4.15;;;3.10;;
26540;SDS011;14206;50.202;10.948;2023-04-03T06:53:56;6.00;;;3.58;;
26540;SDS011;14206;50.202;10.948;2023-04-03T06:56:24;6.10;;;3.72;;
26540;SDS011;14206;50.202;10.948;2023-04-03T06:58:53;5.47;;;3.42;;
26540;SDS011;14206;50.202;10.948;2023-04-03T07:01:21;4.05;;;3.55;;
26540;SDS011;14206;50.202;10.948;2023-04-03T07:03:47;5.30;;;3.65;;
26540;SDS011;14206;50.202;10.948;2023-04-03T07:06:16;5.40;;;3.60;;
26540;SDS011;14206;50.202;10.948;2023-04-03T07:08:44;4.35;;;3.40;;
26540;SDS011;14206;50.202;10.948;2023-04-03T07:11:12;5.30;;;3.20;;
26540;SDS011;14206;50.202;10.948;2023-04-03T07:13:39;5.00;;;3.40;;
26540;SDS011;14206;50.202;10.948;2023-04-03T07:16:06;5.35;;;3.63;;
26540;SDS011;14206;50.202;10.948;2023-04-03T07:18:33;3.88;;;3.30;;
26540;SDS011;14206;50.202;10.948;2023-04-03T07:21:01;5.50;;;3.30;;
26540;SDS011;14206;50.202;10.948;2023-04-03T07:23:28;4.90;;;3.00;;
26540;SDS011;14206;50.202;10.948;2023-04-03T07:25:55;4.47;;;3.00;;
26540;SDS011;14206;50.202;10.948;2023-04-03T07:28:22;2.92;;;2.53;;
26540;SDS011;14206;50.202;10.948;2023-04-03T07:30:51;5.88;;;2.90;;
26540;SDS011;14206;50.202;10.948;2023-04-03T07:33:20;3.88;;;2.83;;
26540;SDS011;14206;50.202;10.948;2023-04-03T07:35:48;3.72;;;2.88;;
26540;SDS011;14206;50.202;10.948;2023-04-03T07:38:15;4.88;;;2.63;;
26540;SDS011;14206;50.202;10.948;2023-04-03T07:40:46;4.95;;;2.80;;
26540;SDS011;14206;50.202;10.948;2023-04-03T07:43:14;5.63;;;3.05;;
26540;SDS011;14206;50.202;10.948;2023-04-03T07:45:42;6.30;;;3.03;;
26540;SDS011;14206;50.202;10.948;2023-04-03T07:48:12;4.07;;;2.65;;
26540;SDS011;14206;50.202;10.948;2023-04-03T07:50:40;3.60;;;2.70;;
26540;SDS011;14206;50.202;10.948;2023-04-03T07:53:07;3.80;;;2.80;;
26540;SDS011;14206;50.202;10.948;2023-04-03T07:55:34;5.95;;;2.90;;
26540;SDS011;14206;50.202;10.948;2023-04-03T07:58:06;3.92;;;2.85;;
26540;SDS011;14206;50.202;10.948;2023-04-03T08:00:33;3.17;;;2.25;;
26540;SDS011;14206;50.202;10.948;2023-04-03T08:03:00;7.63;;;2.63;;
26540;SDS011;14206;50.202;10.948;2023-04-03T08:05:28;3.38;;;2.40;;
26540;SDS011;14206;50.202;10.948;2023-04-03T08:07:54;3.00;;;2.00;;
26540;SDS011;14206;50.202;10.948;2023-04-03T08:10:21;1.48;;;1.38;;
26540;SDS011;14206;50.202;10.948;2023-04-03T08:12:48;3.17;;;1.90;;
26540;SDS011;14206;50.202;10.948;2023-04-03T08:15:15;2.65;;;1.65;;
26540;SDS011;14206;50.202;10.948;2023-04-03T08:17:42;3.15;;;1.80;;
26540;SDS011;14206;50.202;10.948;2023-04-03T08:20:09;1.95;;;1.60;;
26540;SDS011;14206;50.202;10.948;2023-04-03T08:22:36;1.95;;;1.40;;
26540;SDS011;14206;50.202;10.948;2023-04-03T08:25:03;1.88;;;1.40;;
26540;SDS011;14206;50.202;10.948;2023-04-03T08:27:30;2.53;;;1.65;;
26540;SDS011;14206;50.202;10.948;2023-04-03T08:29:59;2.38;;;1.58;;
26540;SDS011;14206;50.202;10.948;2023-04-03T08:32:27;2.05;;;1.55;;
26540;SDS011;14206;50.202;10.948;2023-04-03T08:34:54;3.15;;;1.75;;
26540;SDS011;14206;50.202;10.948;2023-04-03T08:37:21;3.10;;;1.60;;
26540;SDS011;14206;50.202;10.948;2023-04-03T08:39:48;1.77;;;1.40;;
26540;SDS011;14206;50.202;10.948;2023-04-03T08:42:16;1.45;;;1.13;;
26540;SDS011;14206;50.202;10.948;2023-04-03T08:45:15;2.72;;;1.50;;
26540;SDS011;14206;50.202;10.948;2023-04-03T08:48:05;2.13;;;1.33;;
26540;SDS011;14206;50.202;10.948;2023-04-03T08:50:43;1.83;;;1.30;;
26540;SDS011;14206;50.202;10.948;2023-04-03T08:53:24;1.90;;;1.30;;
26540;SDS011;14206;50.202;10.948;2023-04-03T08:55:55;1.80;;;1.23;;
26540;SDS011;14206;50.202;10.948;2023-04-03T08:58:23;2.10;;;1.23;;
26540;SDS011;14206;50.202;10.948;2023-04-03T09:01:00;2.25;;;1.50;;
26540;SDS011;14206;50.202;10.948;2023-04-03T09:03:31;3.60;;;1.45;;
26540;SDS011;14206;50.202;10.948;2023-04-03T09:06:05;2.70;;;1.25;;
26540;SDS011;14206;50.202;10.948;2023-04-03T09:08:40;2.30;;;1.20;;
26540;SDS011;14206;50.202;10.948;2023-04-03T09:14:52;1.85;;;1.20;;
26540;SDS011;14206;50.202;10.948;2023-04-03T09:17:09;2.20;;;1.30;;
26540;SDS011;14206;50.202;10.948;2023-04-03T09:22:44;1.67;;;0.90;;
26540;SDS011;14206;50.202;10.948;2023-04-03T09:25:20;2.50;;;1.00;;
26540;SDS011;14206;50.202;10.948;2023-04-03T09:27:57;1.67;;;1.10;;
26540;SDS011;14206;50.202;10.948;2023-04-03T09:30:25;1.50;;;1.00;;
26540;SDS011;14206;50.202;10.948;2023-04-03T09:32:53;1.17;;;0.80;;
26540;SDS011;14206;50.202;10.948;2023-04-03T09:35:24;1.45;;;0.95;;
26540;SDS011;14206;50.202;10.948;2023-04-03T09:43:20;2.58;;;1.35;;
26540;SDS011;14206;50.202;10.948;2023-04-03T09:45:50;1.95;;;1.20;;
26540;SDS011;14206;50.202;10.948;2023-04-03T09:48:22;2.13;;;1.02;;
26540;SDS011;14206;50.202;10.948;2023-04-03T09:53:38;1.67;;;0.95;;
26540;SDS011;14206;50.202;10.948;2023-04-03T09:58:43;2.03;;;1.10;;
26540;SDS011;14206;50.202;10.948;2023-04-03T10:06:40;2.20;;;0.85;;
26540;SDS011;14206;50.202;10.948;2023-04-03T10:12:06;1.30;;;1.00;;
26540;SDS011;14206;50.202;10.948;2023-04-03T10:14:36;2.47;;;1.02;;
26540;SDS011;14206;50.202;10.948;2023-04-03T10:19:52;2.03;;;1.13;;
26540;SDS011;14206;50.202;10.948;2023-04-03T10:25:12;2.70;;;0.98;;
26540;SDS011;14206;50.202;10.948;2023-04-03T10:30:34;1.35;;;1.00;;
26540;SDS011;14206;50.202;10.948;2023-04-03T10:35:53;1.67;;;0.90;;
26540;SDS011;14206;50.202;10.948;2023-04-03T10:44:47;1.83;;;1.00;;
26540;SDS011;14206;50.202;10.948;2023-04-03T10:53:44;1.67;;;1.00;;
26540;SDS011;14206;50.202;10.948;2023-04-03T10:58:58;1.67;;;1.00;;
26540;SDS011;14206;50.202;10.948;2023-04-03T11:01:31;2.08;;;1.20;;
26540;SDS011;14206;50.202;10.948;2023-04-03T11:04:02;1.95;;;0.82;;
26540;SDS011;14206;50.202;10.948;2023-04-03T11:06:35;1.55;;;0.90;;
26540;SDS011;14206;50.202;10.948;2023-04-03T11:11:42;1.67;;;1.00;;
26540;SDS011;14206;50.202;10.948;2023-04-03T11:17:04;1.20;;;0.65;;
26540;SDS011;14206;50.202;10.948;2023-04-03T11:22:57;2.05;;;0.90;;
26540;SDS011;14206;50.202;10.948;2023-04-03T11:25:31;1.60;;;0.90;;
26540;SDS011;14206;50.202;10.948;2023-04-03T11:28:01;1.77;;;1.00;;
26540;SDS011;14206;50.202;10.948;2023-04-03T11:30:34;1.65;;;0.90;;
26540;SDS011;14206;50.202;10.948;2023-04-03T11:33:12;1.30;;;0.80;;
26540;SDS011;14206;50.202;10.948;2023-04-03T11:35:45;1.67;;;0.80;;
26540;SDS011;14206;50.202;10.948;2023-04-03T11:38:17;1.67;;;0.80;;
26540;SDS011;14206;50.202;10.948;2023-04-03T11:40:49;0.95;;;0.73;;
26540;SDS011;14206;50.202;10.948;2023-04-03T11:43:22;1.00;;;0.68;;
26540;SDS011;14206;50.202;10.948;2023-04-03T11:45:55;2.15;;;0.80;;
26540;SDS011;14206;50.202;10.948;2023-04-03T11:50:58;3.42;;;1.23;;
26540;SDS011;14206;50.202;10.948;2023-04-03T11:56:03;1.60;;;0.70;;
26540;SDS011;14206;50.202;10.948;2023-04-03T12:01:44;1.75;;;0.90;;
26540;SDS011;14206;50.202;10.948;2023-04-03T12:04:12;2.17;;;0.73;;
26540;SDS011;14206;50.202;10.948;2023-04-03T12:06:48;0.98;;;0.80;;
26540;SDS011;14206;50.202;10.948;2023-04-03T12:09:28;1.30;;;0.80;;
26540;SDS011;14206;50.202;10.948;2023-04-03T12:11:59;0.82;;;0.57;;
26540;SDS011;14206;50.202;10.948;2023-04-03T12:14:28;1.90;;;0.68;;
26540;SDS011;14206;50.202;10.948;2023-04-03T12:16:55;1.05;;;0.70;;
26540;SDS011;14206;50.202;10.948;2023-04-03T12:19:29;2.00;;;0.80;;
26540;SDS011;14206;50.202;10.948;2023-04-03T12:22:09;1.90;;;0.77;;
26540;SDS011;14206;50.202;10.948;2023-04-03T12:24:42;1.52;;;0.80;;
26540;SDS011;14206;50.202;10.948;2023-04-03T12:27:27;1.35;;;0.80;;
26540;SDS011;14206;50.202;10.948;2023-04-03T12:33:04;0.97;;;0.77;;
26540;SDS011;14206;50.202;10.948;2023-04-03T12:36:08;1.30;;;1.00;;
26540;SDS011;14206;50.202;10.948;2023-04-03T12:38:53;1.58;;;1.00;;
26540;SDS011;14206;50.202;10.948;2023-04-03T12:41:45;1.10;;;0.95;;
26540;SDS011;14206;50.202;10.948;2023-04-03T12:44:37;2.45;;;1.00;;
26540;SDS011;14206;50.202;10.948;2023-04-03T12:47:22;2.38;;;0.90;;
26540;SDS011;14206;50.202;10.948;2023-04-03T12:49:53;1.95;;;1.08;;
26540;SDS011;14206;50.202;10.948;2023-04-03T12:52:26;1.48;;;0.95;;
26540;SDS011;14206;50.202;10.948;2023-04-03T12:54:59;1.38;;;0.88;;
26540;SDS011;14206;50.202;10.948;2023-04-03T12:57:30;1.58;;;0.80;;
26540;SDS011;14206;50.202;10.948;2023-04-03T12:59:58;0.98;;;0.80;;
26540;SDS011;14206;50.202;10.948;2023-04-03T13:02:30;1.50;;;0.80;;
26540;SDS011;14206;50.202;10.948;2023-04-03T13:05:05;2.33;;;0.70;;
26540;SDS011;14206;50.202;10.948;2023-04-03T13:07:37;2.33;;;1.00;;
26540;SDS011;14206;50.202;10.948;2023-04-03T13:12:34;1.75;;;0.90;;
26540;SDS011;14206;50.202;10.948;2023-04-03T13:15:22;1.50;;;0.90;;
26540;SDS011;14206;50.202;10.948;2023-04-03T13:17:54;1.27;;;0.80;;
26540;SDS011;14206;50.202;10.948;2023-04-03T13:20:30;1.33;;;0.85;;
26540;SDS011;14206;50.202;10.948;2023-04-03T13:23:03;2.70;;;1.30;;
26540;SDS011;14206;50.202;10.948;2023-04-03T13:25:36;1.50;;;1.10;;
26540;SDS011;14206;50.202;10.948;2023-04-03T13:28:12;1.63;;;0.80;;
26540;SDS011;14206;50.202;10.948;2023-04-03T13:33:23;1.13;;;0.75;;
26540;SDS011;14206;50.202;10.948;2023-04-03T13:35:57;0.98;;;0.60;;
26540;SDS011;14206;50.202;10.948;2023-04-03T13:38:32;1.30;;;0.80;;
26540;SDS011;14206;50.202;10.948;2023-04-03T13:41:01;1.40;;;0.75;;
26540;SDS011;14206;50.202;10.948;2023-04-03T13:43:33;2.50;;;0.90;;
26540;SDS011;14206;50.202;10.948;2023-04-03T13:46:03;1.08;;;0.90;;
26540;SDS011;14206;50.202;10.948;2023-04-03T13:48:39;2.55;;;0.90;;
26540;SDS011;14206;50.202;10.948;2023-04-03T13:51:24;1.55;;;0.88;;
26540;SDS011;14206;50.202;10.948;2023-04-03T13:53:54;1.92;;;0.80;;
26540;SDS011;14206;50.202;10.948;2023-04-03T13:56:33;3.03;;;1.13;;
26540;SDS011;14206;50.202;10.948;2023-04-03T14:04:29;1.70;;;1.13;;
26540;SDS011;14206;50.202;10.948;2023-04-03T14:06:58;1.58;;;0.95;;
26540;SDS011;14206;50.202;10.948;2023-04-03T14:09:26;2.65;;;0.98;;
26540;SDS011;14206;50.202;10.948;2023-04-03T14:11:55;1.17;;;0.73;;
26540;SDS011;14206;50.202;10.948;2023-04-03T14:14:29;1.92;;;0.90;;
26540;SDS011;14206;50.202;10.948;2023-04-03T14:16:59;1.88;;;1.10;;
26540;SDS011;14206;50.202;10.948;2023-04-03T14:19:29;1.63;;;0.90;;
26540;SDS011;14206;50.202;10.948;2023-04-03T14:22:03;2.45;;;1.15;;
26540;SDS011;14206;50.202;10.948;2023-04-03T14:24:38;2.60;;;1.20;;
26540;SDS011;14206;50.202;10.948;2023-04-03T14:27:11;1.95;;;1.10;;
26540;SDS011;14206;50.202;10.948;2023-04-03T14:29:45;1.90;;;1.13;;
26540;SDS011;14206;50.202;10.948;2023-04-03T14:32:13;2.63;;;0.93;;
26540;SDS011;14206;50.202;10.948;2023-04-03T14:34:41;2.10;;;0.98;;
26540;SDS011;14206;50.202;10.948;2023-04-03T14:37:10;3.55;;;1.17;;
26540;SDS011;14206;50.202;10.948;2023-04-03T14:39:39;2.95;;;1.10;;
26540;SDS011;14206;50.202;10.948;2023-04-03T14:42:06;1.95;;;0.98;;
26540;SDS011;14206;50.202;10.948;2023-04-03T14:44:37;2.30;;;1.00;;
26540;SDS011;14206;50.202;10.948;2023-04-03T14:47:04;1.63;;;0.90;;
26540;SDS011;14206;50.202;10.948;2023-04-03T14:49:39;1.50;;;1.10;;
26540;SDS011;14206;50.202;10.948;2023-04-03T14:52:06;3.58;;;1.20;;
26540;SDS011;14206;50.202;10.948;2023-04-03T14:54:53;1.65;;;1.20;;
26540;SDS011;14206;50.202;10.948;2023-04-03T14:57:21;2.55;;;1.20;;
26540;SDS011;14206;50.202;10.948;2023-04-03T14:59:51;1.83;;;0.90;;
26540;SDS011;14206;50.202;10.948;2023-04-03T15:02:37;1.80;;;1.00;;
26540;SDS011;14206;50.202;10.948;2023-04-03T15:05:06;2.22;;;1.10;;
26540;SDS011;14206;50.202;10.948;2023-04-03T15:07:39;1.88;;;1.00;;
26540;SDS011;14206;50.202;10.948;2023-04-03T15:12:43;2.38;;;1.10;;
26540;SDS011;14206;50.202;10.948;2023-04-03T15:15:11;1.88;;;1.00;;
26540;SDS011;14206;50.202;10.948;2023-04-03T15:17:39;2.97;;;1.15;;
26540;SDS011;14206;50.202;10.948;2023-04-03T15:20:11;2.92;;;1.50;;
26540;SDS011;14206;50.202;10.948;2023-04-03T15:22:43;1.33;;;0.90;;
26540;SDS011;14206;50.202;10.948;2023-04-03T15:25:10;1.13;;;0.98;;
26540;SDS011;14206;50.202;10.948;2023-04-03T15:27:38;2.70;;;1.40;;
26540;SDS011;14206;50.202;10.948;2023-04-03T15:30:10;2.33;;;1.10;;
26540;SDS011;14206;50.202;10.948;2023-04-03T15:32:40;6.70;;;1.27;;
26540;SDS011;14206;50.202;10.948;2023-04-03T15:35:07;2.45;;;1.20;;
26540;SDS011;14206;50.202;10.948;2023-04-03T15:37:34;2.40;;;1.20;;
26540;SDS011;14206;50.202;10.948;2023-04-03T15:40:02;1.42;;;0.93;;
26540;SDS011;14206;50.202;10.948;2023-04-03T15:42:30;2.17;;;1.20;;
26540;SDS011;14206;50.202;10.948;2023-04-03T15:44:56;2.10;;;1.10;;
26540;SDS011;14206;50.202;10.948;2023-04-03T15:47:24;2.05;;;1.05;;
26540;SDS011;14206;50.202;10.948;2023-04-03T15:49:52;1.50;;;0.95;;
26540;SDS011;14206;50.202;10.948;2023-04-03T15:52:20;1.85;;;1.00;;
26540;SDS011;14206;50.202;10.948;2023-04-03T15:54:47;2.63;;;1.13;;
26540;SDS011;14206;50.202;10.948;2023-04-03T15:57:14;1.60;;;1.08;;
26540;SDS011;14206;50.202;10.948;2023-04-03T15:59:41;2.17;;;1.30;;
26540;SDS011;14206;50.202;10.948;2023-04-03T16:02:08;2.60;;;1.10;;
26540;SDS011;14206;50.202;10.948;2023-04-03T16:04:39;1.88;;;1.20;;
26540;SDS011;14206;50.202;10.948;2023-04-03T16:07:06;1.23;;;0.90;;
26540;SDS011;14206;50.202;10.948;2023-04-03T16:09:33;2.05;;;1.02;;
26540;SDS011;14206;50.202;10.948;2023-04-03T16:12:01;1.42;;;1.20;;
26540;SDS011;14206;50.202;10.948;2023-04-03T16:14:28;1.00;;;0.90;;
26540;SDS011;14206;50.202;10.948;2023-04-03T16:16:56;2.53;;;1.33;;
26540;SDS011;14206;50.202;10.948;2023-04-03T16:19:27;1.95;;;1.20;;
26540;SDS011;14206;50.202;10.948;2023-04-03T16:21:56;2.08;;;1.10;;